FBZ5004 SABE-SACO
Flight info
| Callsign | FBZ5004 |
|---|---|
| Flight time | 1h 5m |
| Altitude | 36000 |
| Route | ATOVO4B ATOVO UW5 ASISA ASISA1Q |
| Aircraft | B738/M-SDFGHIRWZ/S |
Departure
| Time | 2026-05-03 20:29 |
|---|---|
| Airport | Aeroparque Jorge Newbery (SABE) |
Arrival
| Time | 2026-05-03 21:34 |
|---|---|
| Airport | Ingeniero Aeronáutico Ambrosio L.V. Taravella International Airport (SACO) |
| Time | Latitude | Longitude | Altitude | Speed | Heading |
|---|---|---|---|---|---|
| 2026-05-03 20:15 | -34.56057 | -58.40971 | 27 ft | 0 kts | 311° |
| 2026-05-03 20:17 | -34.56055 | -58.40974 | 27 ft | 1 kts | 310° |
| 2026-05-03 20:17 | -34.56041 | -58.40995 | 27 ft | 5 kts | 306° |
| 2026-05-03 20:17 | -34.56009 | -58.41042 | 27 ft | 8 kts | 321° |
| 2026-05-03 20:18 | -34.55965 | -58.41084 | 27 ft | 7 kts | 316° |
| 2026-05-03 20:18 | -34.55940 | -58.41116 | 27 ft | 1 kts | 310° |
| 2026-05-03 20:18 | -34.55940 | -58.41118 | 27 ft | 0 kts | 310° |
| 2026-05-03 20:20 | -34.55931 | -58.41130 | 27 ft | 4 kts | 310° |
| 2026-05-03 20:20 | -34.55896 | -58.41180 | 27 ft | 10 kts | 309° |
| 2026-05-03 20:21 | -34.55859 | -58.41253 | 27 ft | 8 kts | 273° |
| 2026-05-03 20:21 | -34.55895 | -58.41299 | 27 ft | 7 kts | 188° |
| 2026-05-03 20:21 | -34.55935 | -58.41276 | 27 ft | 6 kts | 128° |
| 2026-05-03 20:21 | -34.55957 | -58.41240 | 27 ft | 4 kts | 127° |
| 2026-05-03 20:22 | -34.55979 | -58.41205 | 27 ft | 6 kts | 126° |
| 2026-05-03 20:22 | -34.56014 | -58.41146 | 27 ft | 10 kts | 126° |
| 2026-05-03 20:22 | -34.56058 | -58.41077 | 27 ft | 9 kts | 127° |
| 2026-05-03 20:22 | -34.56101 | -58.41009 | 27 ft | 10 kts | 126° |
| 2026-05-03 20:23 | -34.56146 | -58.40932 | 27 ft | 11 kts | 124° |
| 2026-05-03 20:23 | -34.56167 | -58.40844 | 27 ft | 11 kts | 100° |
| 2026-05-03 20:23 | -34.56207 | -58.40758 | 27 ft | 12 kts | 124° |
| 2026-05-03 20:23 | -34.56246 | -58.40688 | 27 ft | 10 kts | 124° |
| 2026-05-03 20:24 | -34.56288 | -58.40612 | 27 ft | 11 kts | 124° |
| 2026-05-03 20:24 | -34.56342 | -58.40542 | 27 ft | 9 kts | 138° |
| 2026-05-03 20:24 | -34.56380 | -58.40501 | 27 ft | 5 kts | 138° |
| 2026-05-03 20:24 | -34.56410 | -58.40469 | 27 ft | 6 kts | 138° |
| 2026-05-03 20:25 | -34.56445 | -58.40431 | 27 ft | 7 kts | 138° |
| 2026-05-03 20:25 | -34.56487 | -58.40387 | 27 ft | 8 kts | 147° |
| 2026-05-03 20:25 | -34.56540 | -58.40400 | 27 ft | 8 kts | 225° |
| 2026-05-03 20:25 | -34.56548 | -58.40442 | 27 ft | 4 kts | 283° |
| 2026-05-03 20:26 | -34.56536 | -58.40474 | 27 ft | 0 kts | 301° |
| 2026-05-03 20:28 | -34.56533 | -58.40480 | 27 ft | 5 kts | 301° |
| 2026-05-03 20:28 | -34.56368 | -58.40776 | 27 ft | 78 kts | 304° |
| 2026-05-03 20:28 | -34.55937 | -58.41547 | 28 ft | 139 kts | 304° |
| 2026-05-03 20:28 | -34.55313 | -58.42649 | 158 ft | 175 kts | 307° |
| 2026-05-03 20:29 | -34.54533 | -58.43749 | 930 ft | 167 kts | 315° |
| 2026-05-03 20:29 | -34.53660 | -58.44603 | 1628 ft | 166 kts | 332° |
| 2026-05-03 20:29 | -34.52500 | -58.44877 | 1985 ft | 179 kts | 12° |
| 2026-05-03 20:29 | -34.51315 | -58.44171 | 2216 ft | 208 kts | 36° |
| 2026-05-03 20:30 | -34.50134 | -58.43059 | 2640 ft | 226 kts | 34° |
| 2026-05-03 20:30 | -34.48755 | -58.41945 | 3051 ft | 249 kts | 31° |
| 2026-05-03 20:30 | -34.47272 | -58.40780 | 3739 ft | 260 kts | 31° |
| 2026-05-03 20:30 | -34.45715 | -58.39663 | 4548 ft | 263 kts | 21° |
| 2026-05-03 20:31 | -34.43903 | -58.39353 | 5272 ft | 268 kts | 349° |
| 2026-05-03 20:31 | -34.42268 | -58.40316 | 6100 ft | 268 kts | 315° |
| 2026-05-03 20:31 | -34.41435 | -58.41752 | 6753 ft | 270 kts | 294° |
| 2026-05-03 20:31 | -34.40741 | -58.43846 | 7583 ft | 273 kts | 295° |
| 2026-05-03 20:32 | -34.39720 | -58.45786 | 8384 ft | 276 kts | 305° |
| 2026-05-03 20:32 | -34.38650 | -58.47707 | 9188 ft | 280 kts | 301° |
| 2026-05-03 20:32 | -34.37630 | -58.49754 | 10007 ft | 284 kts | 300° |
| 2026-05-03 20:32 | -34.36636 | -58.51791 | 10811 ft | 288 kts | 300° |
| 2026-05-03 20:33 | -34.35619 | -58.53888 | 11612 ft | 292 kts | 299° |
| 2026-05-03 20:33 | -34.34581 | -58.56044 | 12451 ft | 295 kts | 299° |
| 2026-05-03 20:33 | -34.33565 | -58.58161 | 13315 ft | 296 kts | 299° |
| 2026-05-03 20:33 | -34.32535 | -58.60309 | 14168 ft | 298 kts | 298° |
| 2026-05-03 20:34 | -34.31485 | -58.62499 | 15046 ft | 300 kts | 298° |
| 2026-05-03 20:34 | -34.30451 | -58.64655 | 15872 ft | 302 kts | 298° |
| 2026-05-03 20:34 | -34.29388 | -58.66872 | 16556 ft | 309 kts | 298° |
| 2026-05-03 20:34 | -34.28270 | -58.69205 | 16647 ft | 334 kts | 298° |
| 2026-05-03 20:35 | -34.27090 | -58.71664 | 16951 ft | 351 kts | 298° |
| 2026-05-03 20:35 | -34.25869 | -58.74201 | 17576 ft | 356 kts | 298° |
| 2026-05-03 20:35 | -34.24625 | -58.76786 | 18234 ft | 361 kts | 298° |
| 2026-05-03 20:35 | -34.23348 | -58.79438 | 18956 ft | 363 kts | 298° |
| 2026-05-03 20:36 | -34.22084 | -58.82063 | 19659 ft | 364 kts | 298° |
| 2026-05-03 20:36 | -34.20810 | -58.84706 | 20359 ft | 365 kts | 299° |
| 2026-05-03 20:36 | -34.19539 | -58.87340 | 21008 ft | 367 kts | 299° |
| 2026-05-03 20:36 | -34.18247 | -58.90015 | 21636 ft | 368 kts | 300° |
| 2026-05-03 20:37 | -34.16950 | -58.92700 | 22228 ft | 370 kts | 300° |
| 2026-05-03 20:37 | -34.15660 | -58.95368 | 22784 ft | 373 kts | 300° |
| 2026-05-03 20:37 | -34.14330 | -58.98117 | 23328 ft | 375 kts | 301° |
| 2026-05-03 20:37 | -34.13002 | -59.00860 | 23838 ft | 378 kts | 301° |
| 2026-05-03 20:38 | -34.11664 | -59.03619 | 24325 ft | 381 kts | 301° |
| 2026-05-03 20:38 | -34.10318 | -59.06394 | 24826 ft | 383 kts | 301° |
| 2026-05-03 20:38 | -34.08984 | -59.09143 | 25313 ft | 384 kts | 301° |
| 2026-05-03 20:38 | -34.07612 | -59.11966 | 25790 ft | 386 kts | 301° |
| 2026-05-03 20:39 | -34.06178 | -59.14678 | 26235 ft | 388 kts | 306° |
| 2026-05-03 20:39 | -34.04501 | -59.17247 | 26682 ft | 389 kts | 310° |
| 2026-05-03 20:39 | -34.02742 | -59.19770 | 27108 ft | 391 kts | 309° |
| 2026-05-03 20:39 | -34.01013 | -59.22299 | 27513 ft | 393 kts | 309° |
| 2026-05-03 20:40 | -33.99282 | -59.24839 | 27907 ft | 394 kts | 309° |
| 2026-05-03 20:40 | -33.97519 | -59.27401 | 28291 ft | 396 kts | 309° |
| 2026-05-03 20:40 | -33.95792 | -59.29898 | 28652 ft | 398 kts | 309° |
| 2026-05-03 20:40 | -33.94020 | -59.32455 | 29009 ft | 399 kts | 309° |
| 2026-05-03 20:41 | -33.92240 | -59.35022 | 29354 ft | 401 kts | 309° |
| 2026-05-03 20:41 | -33.90443 | -59.37609 | 29687 ft | 402 kts | 309° |
| 2026-05-03 20:41 | -33.88640 | -59.40201 | 30008 ft | 404 kts | 308° |
| 2026-05-03 20:41 | -33.86872 | -59.42738 | 30518 ft | 401 kts | 308° |
| 2026-05-03 20:42 | -33.85130 | -59.45235 | 31045 ft | 397 kts | 308° |
| 2026-05-03 20:42 | -33.83327 | -59.47818 | 31474 ft | 396 kts | 308° |
| 2026-05-03 20:42 | -33.81564 | -59.50342 | 31924 ft | 393 kts | 308° |
| 2026-05-03 20:42 | -33.79820 | -59.52837 | 32344 ft | 392 kts | 307° |
| 2026-05-03 20:43 | -33.78070 | -59.55338 | 32751 ft | 390 kts | 307° |
| 2026-05-03 20:43 | -33.76325 | -59.57831 | 33145 ft | 388 kts | 307° |
| 2026-05-03 20:43 | -33.74590 | -59.60306 | 33526 ft | 387 kts | 307° |
| 2026-05-03 20:43 | -33.72868 | -59.62764 | 33895 ft | 386 kts | 307° |
| 2026-05-03 20:44 | -33.71170 | -59.65183 | 34237 ft | 385 kts | 307° |
| 2026-05-03 20:44 | -33.69646 | -59.67354 | 34528 ft | 385 kts | 307° |
| 2026-05-03 20:44 | -33.69278 | -59.67873 | 34600 ft | 386 kts | 301° |
| 2026-05-03 20:45 | -33.65750 | -59.72887 | 34722 ft | 401 kts | 301° |
| 2026-05-03 20:45 | -33.62084 | -59.78096 | 34835 ft | 417 kts | 302° |
| 2026-05-03 20:46 | -33.58245 | -59.83542 | 34941 ft | 432 kts | 302° |
| 2026-05-03 20:46 | -33.54301 | -59.89122 | 35044 ft | 446 kts | 302° |
| 2026-05-03 20:46 | -33.52285 | -59.91969 | 35184 ft | 451 kts | 302° |
| 2026-05-03 20:47 | -33.50257 | -59.94827 | 35432 ft | 452 kts | 302° |
| 2026-05-03 20:47 | -33.48231 | -59.97679 | 35712 ft | 452 kts | 302° |
| 2026-05-03 20:47 | -33.46188 | -60.00554 | 36007 ft | 452 kts | 302° |
| 2026-05-03 20:48 | -33.42101 | -60.06307 | 36069 ft | 455 kts | 302° |
| 2026-05-03 20:48 | -33.38034 | -60.12013 | 36070 ft | 451 kts | 302° |
| 2026-05-03 20:49 | -33.33969 | -60.17717 | 36071 ft | 451 kts | 302° |
| 2026-05-03 20:49 | -33.29890 | -60.23431 | 36070 ft | 451 kts | 302° |
| 2026-05-03 20:50 | -33.25837 | -60.29098 | 36070 ft | 452 kts | 302° |
| 2026-05-03 20:50 | -33.21743 | -60.34814 | 36070 ft | 451 kts | 302° |
| 2026-05-03 20:51 | -33.17647 | -60.40525 | 36070 ft | 451 kts | 302° |
| 2026-05-03 20:51 | -33.13548 | -60.46230 | 36070 ft | 451 kts | 302° |
| 2026-05-03 20:52 | -33.09478 | -60.51887 | 36070 ft | 451 kts | 302° |
| 2026-05-03 20:52 | -33.05375 | -60.57580 | 36071 ft | 451 kts | 302° |
| 2026-05-03 20:53 | -33.01294 | -60.63234 | 36071 ft | 451 kts | 302° |
| 2026-05-03 20:53 | -32.97209 | -60.68885 | 36070 ft | 452 kts | 303° |
| 2026-05-03 20:54 | -32.93108 | -60.74548 | 36070 ft | 452 kts | 303° |
| 2026-05-03 20:54 | -32.89645 | -60.80150 | 36071 ft | 441 kts | 293° |
| 2026-05-03 20:54 | -32.88271 | -60.82927 | 36070 ft | 440 kts | 292° |
| 2026-05-03 20:55 | -32.85128 | -60.89220 | 36070 ft | 441 kts | 293° |
| 2026-05-03 20:55 | -32.82001 | -60.95448 | 36070 ft | 441 kts | 292° |
| 2026-05-03 20:56 | -32.78875 | -61.01725 | 36070 ft | 440 kts | 292° |
| 2026-05-03 20:56 | -32.75733 | -61.08033 | 36070 ft | 440 kts | 292° |
| 2026-05-03 20:57 | -32.72618 | -61.14289 | 36070 ft | 440 kts | 292° |
| 2026-05-03 20:57 | -32.69506 | -61.20533 | 36070 ft | 440 kts | 292° |
| 2026-05-03 20:58 | -32.66389 | -61.26778 | 36070 ft | 440 kts | 292° |
| 2026-05-03 20:58 | -32.63247 | -61.33067 | 36070 ft | 440 kts | 292° |
| 2026-05-03 20:59 | -32.60107 | -61.39342 | 36070 ft | 440 kts | 292° |
| 2026-05-03 20:59 | -32.56989 | -61.45562 | 36070 ft | 440 kts | 292° |
| 2026-05-03 21:00 | -32.54919 | -61.49686 | 36070 ft | 440 kts | 292° |
| 2026-05-03 21:00 | -32.50798 | -61.57882 | 36070 ft | 440 kts | 292° |
| 2026-05-03 21:01 | -32.47679 | -61.64074 | 36070 ft | 440 kts | 292° |
| 2026-05-03 21:01 | -32.44525 | -61.70326 | 36070 ft | 440 kts | 293° |
| 2026-05-03 21:02 | -32.41348 | -61.76612 | 36070 ft | 440 kts | 293° |
| 2026-05-03 21:02 | -32.38194 | -61.82840 | 36070 ft | 440 kts | 293° |
| 2026-05-03 21:03 | -32.35003 | -61.89134 | 36070 ft | 440 kts | 293° |
| 2026-05-03 21:03 | -32.31854 | -61.95334 | 36070 ft | 440 kts | 293° |
| 2026-05-03 21:04 | -32.28706 | -62.01529 | 36070 ft | 440 kts | 293° |
| 2026-05-03 21:04 | -32.25533 | -62.07762 | 36070 ft | 440 kts | 293° |
| 2026-05-03 21:05 | -32.22393 | -62.13918 | 36070 ft | 439 kts | 293° |
| 2026-05-03 21:05 | -32.19222 | -62.20126 | 36070 ft | 439 kts | 293° |
| 2026-05-03 21:06 | -32.16049 | -62.26329 | 36070 ft | 439 kts | 293° |
| 2026-05-03 21:06 | -32.12891 | -62.32490 | 36004 ft | 437 kts | 293° |
| 2026-05-03 21:07 | -32.11325 | -62.35535 | 35388 ft | 435 kts | 292° |
| 2026-05-03 21:07 | -32.09757 | -62.38589 | 34649 ft | 435 kts | 292° |
| 2026-05-03 21:07 | -32.08172 | -62.41678 | 33872 ft | 436 kts | 292° |
| 2026-05-03 21:07 | -32.06610 | -62.44711 | 33316 ft | 430 kts | 293° |
| 2026-05-03 21:08 | -32.05054 | -62.47726 | 32742 ft | 425 kts | 293° |
| 2026-05-03 21:08 | -32.03534 | -62.50675 | 32175 ft | 420 kts | 293° |
| 2026-05-03 21:08 | -32.02048 | -62.53556 | 31617 ft | 415 kts | 294° |
| 2026-05-03 21:08 | -32.00629 | -62.56305 | 31084 ft | 410 kts | 294° |
| 2026-05-03 21:09 | -31.99213 | -62.59048 | 30549 ft | 404 kts | 294° |
| 2026-05-03 21:09 | -31.97792 | -62.61796 | 30013 ft | 399 kts | 294° |
| 2026-05-03 21:09 | -31.96386 | -62.64517 | 29479 ft | 393 kts | 295° |
| 2026-05-03 21:09 | -31.95000 | -62.67195 | 28953 ft | 387 kts | 295° |
| 2026-05-03 21:10 | -31.93606 | -62.69886 | 28411 ft | 382 kts | 296° |
| 2026-05-03 21:10 | -31.92234 | -62.72534 | 27883 ft | 377 kts | 296° |
| 2026-05-03 21:10 | -31.90877 | -62.75152 | 27363 ft | 371 kts | 296° |
| 2026-05-03 21:10 | -31.89604 | -62.77605 | 26876 ft | 366 kts | 297° |
| 2026-05-03 21:11 | -31.88286 | -62.80146 | 26371 ft | 360 kts | 297° |
| 2026-05-03 21:11 | -31.87089 | -62.82449 | 25912 ft | 355 kts | 297° |
| 2026-05-03 21:11 | -31.85824 | -62.84885 | 25426 ft | 350 kts | 297° |
| 2026-05-03 21:11 | -31.84568 | -62.87299 | 24944 ft | 345 kts | 298° |
| 2026-05-03 21:12 | -31.83664 | -62.89037 | 24595 ft | 341 kts | 298° |
| 2026-05-03 21:12 | -31.83278 | -62.89778 | 24447 ft | 340 kts | 298° |
| 2026-05-03 21:12 | -31.82053 | -62.92131 | 23975 ft | 335 kts | 298° |
| 2026-05-03 21:12 | -31.80842 | -62.94454 | 23507 ft | 330 kts | 299° |
| 2026-05-03 21:13 | -31.79639 | -62.96765 | 23046 ft | 334 kts | 299° |
| 2026-05-03 21:13 | -31.78434 | -62.99074 | 22576 ft | 332 kts | 300° |
| 2026-05-03 21:13 | -31.77234 | -63.01372 | 22112 ft | 327 kts | 300° |
| 2026-05-03 21:13 | -31.76058 | -63.03622 | 21648 ft | 315 kts | 300° |
| 2026-05-03 21:14 | -31.74944 | -63.05751 | 21228 ft | 301 kts | 300° |
| 2026-05-03 21:14 | -31.73708 | -63.07675 | 20809 ft | 290 kts | 316° |
| 2026-05-03 21:14 | -31.72028 | -63.08862 | 20458 ft | 282 kts | 336° |
| 2026-05-03 21:14 | -31.70184 | -63.09539 | 20159 ft | 270 kts | 339° |
| 2026-05-03 21:15 | -31.68486 | -63.10163 | 19885 ft | 258 kts | 338° |
| 2026-05-03 21:15 | -31.66815 | -63.10802 | 19614 ft | 252 kts | 338° |
| 2026-05-03 21:15 | -31.65135 | -63.11451 | 19340 ft | 254 kts | 338° |
| 2026-05-03 21:15 | -31.63456 | -63.12107 | 19061 ft | 255 kts | 338° |
| 2026-05-03 21:16 | -31.61800 | -63.12764 | 18786 ft | 254 kts | 338° |
| 2026-05-03 21:16 | -31.60135 | -63.13433 | 18507 ft | 252 kts | 338° |
| 2026-05-03 21:16 | -31.58485 | -63.14144 | 18223 ft | 250 kts | 332° |
| 2026-05-03 21:16 | -31.57107 | -63.15322 | 18002 ft | 251 kts | 314° |
| 2026-05-03 21:17 | -31.55864 | -63.16895 | 17648 ft | 267 kts | 313° |
| 2026-05-03 21:17 | -31.55022 | -63.17958 | 17397 ft | 267 kts | 313° |
| 2026-05-03 21:17 | -31.53317 | -63.20088 | 16906 ft | 266 kts | 313° |
| 2026-05-03 21:17 | -31.52068 | -63.21663 | 16543 ft | 264 kts | 313° |
| 2026-05-03 21:18 | -31.50823 | -63.23240 | 16178 ft | 264 kts | 313° |
| 2026-05-03 21:18 | -31.49877 | -63.24441 | 15900 ft | 263 kts | 313° |
| 2026-05-03 21:18 | -31.48627 | -63.26008 | 15483 ft | 266 kts | 313° |
| 2026-05-03 21:18 | -31.47337 | -63.27569 | 15090 ft | 264 kts | 313° |
| 2026-05-03 21:19 | -31.46071 | -63.29115 | 14725 ft | 261 kts | 313° |
| 2026-05-03 21:19 | -31.44826 | -63.30640 | 14367 ft | 259 kts | 313° |
| 2026-05-03 21:19 | -31.43602 | -63.32156 | 14064 ft | 254 kts | 310° |
| 2026-05-03 21:19 | -31.42767 | -63.33949 | 13804 ft | 250 kts | 283° |
| 2026-05-03 21:20 | -31.42788 | -63.35993 | 13574 ft | 253 kts | 266° |
| 2026-05-03 21:20 | -31.42897 | -63.38054 | 13322 ft | 253 kts | 273° |
| 2026-05-03 21:20 | -31.42879 | -63.40136 | 13067 ft | 253 kts | 273° |
| 2026-05-03 21:20 | -31.42897 | -63.42184 | 12816 ft | 252 kts | 272° |
| 2026-05-03 21:21 | -31.42919 | -63.44242 | 12562 ft | 251 kts | 272° |
| 2026-05-03 21:21 | -31.42941 | -63.46281 | 12280 ft | 251 kts | 272° |
| 2026-05-03 21:21 | -31.42964 | -63.48326 | 11930 ft | 252 kts | 272° |
| 2026-05-03 21:21 | -31.42987 | -63.50365 | 11568 ft | 251 kts | 272° |
| 2026-05-03 21:22 | -31.43010 | -63.52387 | 11207 ft | 250 kts | 272° |
| 2026-05-03 21:22 | -31.43033 | -63.54441 | 10839 ft | 249 kts | 272° |
| 2026-05-03 21:22 | -31.43055 | -63.56467 | 10481 ft | 249 kts | 272° |
| 2026-05-03 21:22 | -31.43077 | -63.58474 | 10252 ft | 244 kts | 272° |
| 2026-05-03 21:23 | -31.43098 | -63.60453 | 10127 ft | 245 kts | 272° |
| 2026-05-03 21:23 | -31.43119 | -63.62477 | 9861 ft | 250 kts | 272° |
| 2026-05-03 21:23 | -31.43141 | -63.64513 | 9520 ft | 249 kts | 272° |
| 2026-05-03 21:23 | -31.43162 | -63.66542 | 9196 ft | 247 kts | 273° |
| 2026-05-03 21:24 | -31.43182 | -63.68570 | 8874 ft | 246 kts | 273° |
| 2026-05-03 21:24 | -31.43202 | -63.70565 | 8558 ft | 245 kts | 273° |
| 2026-05-03 21:24 | -31.43221 | -63.72548 | 8243 ft | 245 kts | 273° |
| 2026-05-03 21:24 | -31.43241 | -63.74581 | 7921 ft | 245 kts | 273° |
| 2026-05-03 21:25 | -31.43260 | -63.76590 | 7601 ft | 245 kts | 273° |
| 2026-05-03 21:25 | -31.43279 | -63.78575 | 7285 ft | 244 kts | 273° |
| 2026-05-03 21:25 | -31.43297 | -63.80580 | 6966 ft | 244 kts | 273° |
| 2026-05-03 21:25 | -31.43315 | -63.82565 | 6651 ft | 244 kts | 273° |
| 2026-05-03 21:26 | -31.43333 | -63.84554 | 6334 ft | 243 kts | 273° |
| 2026-05-03 21:26 | -31.43350 | -63.86544 | 6018 ft | 243 kts | 273° |
| 2026-05-03 21:26 | -31.43367 | -63.88511 | 5703 ft | 242 kts | 273° |
| 2026-05-03 21:26 | -31.43384 | -63.90507 | 5384 ft | 242 kts | 273° |
| 2026-05-03 21:27 | -31.43400 | -63.92454 | 5139 ft | 239 kts | 273° |
| 2026-05-03 21:27 | -31.43416 | -63.94395 | 5052 ft | 239 kts | 273° |
| 2026-05-03 21:27 | -31.43431 | -63.96368 | 4969 ft | 241 kts | 273° |
| 2026-05-03 21:27 | -31.43447 | -63.98306 | 4874 ft | 233 kts | 273° |
| 2026-05-03 21:28 | -31.43463 | -64.00151 | 4795 ft | 216 kts | 273° |
| 2026-05-03 21:28 | -31.43476 | -64.01842 | 4716 ft | 201 kts | 274° |
| 2026-05-03 21:28 | -31.43486 | -64.03465 | 4647 ft | 201 kts | 274° |
| 2026-05-03 21:28 | -31.43495 | -64.05131 | 4541 ft | 202 kts | 274° |
| 2026-05-03 21:29 | -31.43495 | -64.06767 | 4397 ft | 203 kts | 274° |
| 2026-05-03 21:29 | -31.43495 | -64.08422 | 4163 ft | 201 kts | 274° |
| 2026-05-03 21:29 | -31.43494 | -64.10068 | 3944 ft | 200 kts | 274° |
| 2026-05-03 21:29 | -31.43494 | -64.11706 | 3775 ft | 198 kts | 274° |
| 2026-05-03 21:30 | -31.43492 | -64.13327 | 3730 ft | 199 kts | 274° |
| 2026-05-03 21:30 | -31.43490 | -64.14950 | 3671 ft | 198 kts | 275° |
| 2026-05-03 21:30 | -31.43181 | -64.16400 | 3573 ft | 170 kts | 310° |
| 2026-05-03 21:30 | -31.42311 | -64.17266 | 3411 ft | 163 kts | 333° |
| 2026-05-03 21:31 | -31.41353 | -64.17927 | 3219 ft | 155 kts | 333° |
| 2026-05-03 21:31 | -31.40434 | -64.18569 | 3058 ft | 155 kts | 333° |
| 2026-05-03 21:31 | -31.39498 | -64.19221 | 2890 ft | 154 kts | 333° |
| 2026-05-03 21:31 | -31.38580 | -64.19859 | 2738 ft | 149 kts | 333° |
| 2026-05-03 21:32 | -31.37675 | -64.20439 | 2480 ft | 147 kts | 340° |
| 2026-05-03 21:32 | -31.36725 | -64.20733 | 2243 ft | 140 kts | 357° |
| 2026-05-03 21:32 | -31.35749 | -64.20787 | 2061 ft | 140 kts | 4° |
| 2026-05-03 21:32 | -31.34766 | -64.20769 | 1887 ft | 142 kts | 2° |
| 2026-05-03 21:33 | -31.33788 | -64.20795 | 1764 ft | 141 kts | 1° |
| 2026-05-03 21:33 | -31.32799 | -64.20802 | 1631 ft | 140 kts | 2° |
| 2026-05-03 21:33 | -31.31859 | -64.20819 | 1551 ft | 119 kts | 1° |
| 2026-05-03 21:33 | -31.31274 | -64.20828 | 1562 ft | 50 kts | 360° |
| 2026-05-03 21:34 | -31.31125 | -64.20835 | 1566 ft | 3 kts | 66° |
| 2026-05-03 21:34 | -31.31140 | -64.20817 | 1565 ft | 6 kts | 166° |
| 2026-05-03 21:34 | -31.31233 | -64.20823 | 1563 ft | 19 kts | 185° |
| 2026-05-03 21:34 | -31.31390 | -64.20828 | 1560 ft | 11 kts | 179° |
| 2026-05-03 21:35 | -31.31449 | -64.20860 | 1560 ft | 8 kts | 234° |
| 2026-05-03 21:35 | -31.31462 | -64.20909 | 1562 ft | 4 kts | 265° |
| 2026-05-03 21:35 | -31.31463 | -64.20947 | 1563 ft | 5 kts | 268° |
| 2026-05-03 21:35 | -31.31465 | -64.21000 | 1565 ft | 7 kts | 263° |
| 2026-05-03 21:36 | -31.31501 | -64.21060 | 1566 ft | 8 kts | 220° |
| 2026-05-03 21:36 | -31.31546 | -64.21080 | 1564 ft | 5 kts | 206° |
| 2026-05-03 21:36 | -31.31566 | -64.21112 | 1564 ft | 3 kts | 249° |
| 2026-05-03 21:36 | -31.31572 | -64.21130 | 1565 ft | 3 kts | 250° |
| 2026-05-03 21:37 | -31.31579 | -64.21156 | 1566 ft | 1 kts | 250° |
| 2026-05-03 21:37 | -31.31585 | -64.21175 | 1566 ft | 1 kts | 250° |
| 2026-05-03 21:37 | -31.31587 | -64.21180 | 1566 ft | 0 kts | 250° |
| 2026-05-03 21:37 | -31.31588 | -64.21182 | 1566 ft | 0 kts | 250° |